createdAt,value
2022-12-23T00:01:24.999Z,5.88
2022-12-23T00:03:53.564Z,5.50
2022-12-23T00:06:22.136Z,5.97
2022-12-23T00:08:50.077Z,5.10
2022-12-23T00:11:21.345Z,5.53
2022-12-23T00:14:06.934Z,4.82
2022-12-23T00:16:38.662Z,5.28
2022-12-23T00:19:06.890Z,5.57
2022-12-23T00:21:35.847Z,5.22
2022-12-23T00:24:03.754Z,5.25
2022-12-23T00:26:31.708Z,5.20
2022-12-23T00:28:59.572Z,5.40
2022-12-23T00:31:27.643Z,5.60
2022-12-23T00:33:56.919Z,5.28
2022-12-23T00:36:27.503Z,5.18
2022-12-23T00:39:13.894Z,5.55
2022-12-23T00:41:59.418Z,5.72
2022-12-23T00:44:27.579Z,5.70
2022-12-23T00:46:55.483Z,5.63
2022-12-23T00:49:42.255Z,4.80
2022-12-23T00:52:12.542Z,5.15
2022-12-23T00:54:40.887Z,5.20
2022-12-23T00:57:08.797Z,4.85
2022-12-23T00:59:36.927Z,5.10
2022-12-23T01:02:22.616Z,4.90
2022-12-23T01:05:09.313Z,5.13
2022-12-23T01:07:37.292Z,5.43
2022-12-23T01:10:05.766Z,5.30
2022-12-23T01:12:33.598Z,5.10
2022-12-23T01:15:01.506Z,5.20
2022-12-23T01:17:29.360Z,4.95
2022-12-23T01:19:58.624Z,4.60
2022-12-23T01:22:26.720Z,4.88
2022-12-23T01:24:54.709Z,4.90
2022-12-23T01:27:22.539Z,4.38
2022-12-23T01:29:50.721Z,5.30
2022-12-23T01:32:19.025Z,4.95
2022-12-23T01:34:46.984Z,5.00
2022-12-23T01:37:16.395Z,4.78
2022-12-23T01:39:44.422Z,4.63
2022-12-23T01:42:31.888Z,5.13
2022-12-23T01:45:01.621Z,4.80
2022-12-23T01:47:37.516Z,4.57
2022-12-23T01:50:13.611Z,4.45
2022-12-23T01:52:46.792Z,4.15
2022-12-23T01:55:17.444Z,4.28
2022-12-23T01:57:47.212Z,4.63
2022-12-23T02:00:33.876Z,4.28
2022-12-23T02:03:19.437Z,4.97
2022-12-23T02:05:48.233Z,4.82
2022-12-23T02:08:35.924Z,4.80
2022-12-23T02:11:33.429Z,4.72
2022-12-23T02:14:35.953Z,4.50
2022-12-23T02:17:15.117Z,4.20
2022-12-23T02:20:10.022Z,4.82
2022-12-23T02:22:59.618Z,3.88
2022-12-23T02:25:47.981Z,3.95
2022-12-23T02:28:42.680Z,4.47
2022-12-23T02:31:21.756Z,4.13
2022-12-23T02:33:58.991Z,3.97
2022-12-23T02:36:37.630Z,4.07
2022-12-23T02:39:10.162Z,4.00
2022-12-23T02:41:47.121Z,4.40
2022-12-23T02:44:23.304Z,4.10
2022-12-23T02:46:57.949Z,3.95
2022-12-23T02:49:31.406Z,3.78
2022-12-23T02:52:03.006Z,3.55
2022-12-23T02:54:33.610Z,3.83
2022-12-23T02:57:04.678Z,4.15
2022-12-23T02:59:40.046Z,3.97
2022-12-23T03:02:09.701Z,3.83
2022-12-23T03:04:40.383Z,4.00
2022-12-23T03:07:18.661Z,3.85
2022-12-23T03:09:59.041Z,3.85
2022-12-23T03:12:35.542Z,3.90
2022-12-23T03:15:15.555Z,3.65
2022-12-23T03:17:55.547Z,3.78
2022-12-23T03:20:28.411Z,3.67
2022-12-23T03:23:04.744Z,3.40
2022-12-23T03:25:36.941Z,3.22
2022-12-23T03:28:12.182Z,3.50
2022-12-23T03:30:45.015Z,3.50
2022-12-23T03:33:20.469Z,3.13
2022-12-23T03:35:52.357Z,3.72
2022-12-23T03:38:20.793Z,3.38
2022-12-23T03:40:55.507Z,3.38
2022-12-23T03:43:28.311Z,3.10
2022-12-23T03:46:00.352Z,3.70
2022-12-23T03:48:36.868Z,3.20
2022-12-23T03:51:11.429Z,3.38
2022-12-23T03:53:44.738Z,3.25
2022-12-23T03:56:17.878Z,3.40
2022-12-23T03:58:52.139Z,3.50
2022-12-23T04:01:26.813Z,3.20
2022-12-23T04:04:02.664Z,3.22
2022-12-23T04:06:37.789Z,3.05
2022-12-23T04:09:07.115Z,3.15
2022-12-23T04:11:36.113Z,3.03
2022-12-23T04:14:04.312Z,3.00
2022-12-23T04:16:33.550Z,3.10
2022-12-23T04:19:02.831Z,2.80
2022-12-23T04:21:30.775Z,3.22
2022-12-23T04:23:58.669Z,3.00
2022-12-23T04:26:26.602Z,2.83
2022-12-23T04:28:54.431Z,3.20
2022-12-23T04:31:22.812Z,2.85
2022-12-23T04:33:51.075Z,3.17
2022-12-23T04:36:20.450Z,3.00
2022-12-23T04:38:48.518Z,2.83
2022-12-23T04:41:16.676Z,2.90
2022-12-23T04:43:49.319Z,2.70
2022-12-23T04:46:21.103Z,2.83
2022-12-23T04:48:48.963Z,2.58
2022-12-23T04:51:16.912Z,2.97
2022-12-23T04:53:46.567Z,2.83
2022-12-23T04:56:14.462Z,3.30
2022-12-23T04:58:42.368Z,2.72
2022-12-23T05:01:12.243Z,2.70
2022-12-23T05:03:41.345Z,2.92
2022-12-23T05:06:10.339Z,2.90
2022-12-23T05:08:38.479Z,2.38
2022-12-23T05:11:08.050Z,2.88
2022-12-23T05:13:36.369Z,2.63
2022-12-23T05:16:04.668Z,3.00
2022-12-23T05:18:32.653Z,2.65
2022-12-23T05:21:00.622Z,2.70
2022-12-23T05:23:28.993Z,3.20
2022-12-23T05:25:57.060Z,3.10
2022-12-23T05:28:26.825Z,2.58
2022-12-23T05:30:59.665Z,2.97
2022-12-23T05:33:28.224Z,2.55
2022-12-23T05:35:56.413Z,2.95
2022-12-23T05:38:24.836Z,2.63
2022-12-23T05:40:53.165Z,3.10
2022-12-23T05:43:21.847Z,2.80
2022-12-23T05:45:52.582Z,2.63
2022-12-23T05:48:20.761Z,2.72
2022-12-23T05:50:51.721Z,2.80
2022-12-23T05:53:20.362Z,2.70
2022-12-23T05:55:48.861Z,2.90
2022-12-23T05:58:17.620Z,2.65
2022-12-23T06:00:46.060Z,2.83
2022-12-23T06:03:15.925Z,2.50
2022-12-23T06:05:44.091Z,2.65
2022-12-23T06:08:12.376Z,2.85
2022-12-23T06:10:40.755Z,2.75
2022-12-23T06:13:09.474Z,2.65
2022-12-23T06:15:37.746Z,3.08
2022-12-23T06:18:05.802Z,2.58
2022-12-23T06:20:35.544Z,2.60
2022-12-23T06:23:04.735Z,2.65
2022-12-23T06:25:32.671Z,3.08
2022-12-23T06:28:00.577Z,3.00
2022-12-23T06:30:28.871Z,2.78
2022-12-23T06:32:57.046Z,3.10
2022-12-23T06:35:25.031Z,2.63
2022-12-23T06:37:55.383Z,2.75
2022-12-23T06:40:23.412Z,2.88
2022-12-23T06:42:51.326Z,3.00
2022-12-23T06:45:19.312Z,3.00
2022-12-23T06:47:47.402Z,2.90
2022-12-23T06:50:15.352Z,2.75
2022-12-23T06:52:43.331Z,2.88
2022-12-23T06:55:13.138Z,3.08
2022-12-23T06:57:41.212Z,3.03
2022-12-23T07:00:10.622Z,2.88
2022-12-23T07:02:38.743Z,3.40
2022-12-23T07:05:07.280Z,3.30
2022-12-23T07:07:35.702Z,2.80
2022-12-23T07:10:03.762Z,3.00
2022-12-23T07:12:33.124Z,2.80
2022-12-23T07:15:02.403Z,2.97
2022-12-23T07:17:31.541Z,3.15
2022-12-23T07:20:01.151Z,3.25
2022-12-23T07:22:29.201Z,2.92
2022-12-23T07:24:57.222Z,2.90
2022-12-23T07:27:25.532Z,3.20
2022-12-23T07:29:55.102Z,2.90
2022-12-23T07:32:23.078Z,2.90
2022-12-23T07:34:51.184Z,3.05
2022-12-23T07:37:19.223Z,3.10
2022-12-23T07:39:47.358Z,3.22
2022-12-23T07:45:07.137Z,3.15
2022-12-23T07:47:35.374Z,3.20
2022-12-23T07:50:04.272Z,3.33
2022-12-23T07:52:32.420Z,3.30
2022-12-23T07:55:00.466Z,3.20
2022-12-23T07:57:29.254Z,3.08
2022-12-23T07:59:57.252Z,3.35
2022-12-23T08:02:26.741Z,3.47
2022-12-23T08:04:54.915Z,3.63
2022-12-23T08:07:22.907Z,3.72
2022-12-23T08:09:50.753Z,3.45
2022-12-23T08:12:18.612Z,3.75
2022-12-23T08:14:48.562Z,3.40
2022-12-23T08:17:16.919Z,3.63
2022-12-23T08:19:46.421Z,3.85
2022-12-23T08:22:14.403Z,3.63
2022-12-23T08:24:42.291Z,3.20
2022-12-23T08:27:10.824Z,3.83
2022-12-23T08:29:40.572Z,3.45
2022-12-23T08:32:08.721Z,3.75
2022-12-23T08:34:37.133Z,3.33
2022-12-23T08:37:06.627Z,3.38
2022-12-23T08:39:34.504Z,3.55
2022-12-23T08:42:04.772Z,3.38
2022-12-23T08:44:32.775Z,3.47
2022-12-23T08:47:00.742Z,3.40
2022-12-23T08:49:28.628Z,3.60
2022-12-23T08:51:56.965Z,3.55
2022-12-23T08:54:27.087Z,3.40
2022-12-23T08:56:55.108Z,3.65
2022-12-23T08:59:23.446Z,3.42
2022-12-23T09:01:51.422Z,3.85
2022-12-23T09:04:19.528Z,3.67
2022-12-23T09:06:47.705Z,3.97
2022-12-23T09:09:16.352Z,3.95
2022-12-23T09:11:45.810Z,3.92
2022-12-23T09:14:13.798Z,4.03
2022-12-23T09:16:41.691Z,4.38
2022-12-23T09:19:09.759Z,4.43
2022-12-23T09:21:37.952Z,4.20
2022-12-23T09:24:06.562Z,4.25
2022-12-23T09:26:34.809Z,4.25
2022-12-23T09:29:04.184Z,3.95
2022-12-23T09:31:36.845Z,3.92
2022-12-23T09:34:06.161Z,4.75
2022-12-23T09:36:34.119Z,4.03
2022-12-23T09:39:02.315Z,3.67
2022-12-23T09:41:49.497Z,4.03
2022-12-23T09:44:37.835Z,4.13
2022-12-23T09:47:11.922Z,4.43
2022-12-23T09:49:47.665Z,4.20
2022-12-23T09:52:20.408Z,5.90
2022-12-23T09:54:52.001Z,4.85
2022-12-23T09:57:24.629Z,4.75
2022-12-23T10:00:04.134Z,6.15
2022-12-23T10:02:43.271Z,5.55
2022-12-23T10:05:22.591Z,5.88
2022-12-23T10:07:53.831Z,6.22
2022-12-23T10:10:30.489Z,6.90
2022-12-23T10:13:17.204Z,6.82
2022-12-23T10:15:49.850Z,6.80
2022-12-23T10:18:25.998Z,6.28
2022-12-23T10:21:00.392Z,6.32
2022-12-23T10:23:38.551Z,6.43
2022-12-23T10:26:15.281Z,5.70
2022-12-23T10:28:43.199Z,6.22
2022-12-23T10:34:18.907Z,6.22
2022-12-23T10:36:53.289Z,5.85
2022-12-23T10:39:32.703Z,5.60
2022-12-23T10:42:13.537Z,5.90
2022-12-23T10:45:09.485Z,6.93
2022-12-23T10:47:51.829Z,6.45
2022-12-23T10:50:37.778Z,5.57
2022-12-23T10:53:11.818Z,5.50
2022-12-23T10:55:40.536Z,5.78
2022-12-23T10:58:14.476Z,5.97
2022-12-23T11:00:46.535Z,5.55
2022-12-23T11:03:20.967Z,5.60
2022-12-23T11:05:54.708Z,5.47
2022-12-23T11:08:24.845Z,5.88
2022-12-23T11:10:56.083Z,6.03
2022-12-23T11:13:40.519Z,5.78
2022-12-23T11:16:25.437Z,5.65
2022-12-23T11:18:58.059Z,6.60
2022-12-23T11:21:29.091Z,5.60
2022-12-23T11:24:25.534Z,6.32
2022-12-23T11:27:08.072Z,5.50
2022-12-23T11:29:41.087Z,6.10
2022-12-23T11:32:23.782Z,6.70
2022-12-23T11:34:56.998Z,6.40
2022-12-23T11:37:31.342Z,6.22
2022-12-23T11:39:59.597Z,6.85
2022-12-23T11:42:31.212Z,6.13
2022-12-23T11:45:02.810Z,5.40
2022-12-23T11:47:39.924Z,5.65
2022-12-23T11:50:29.709Z,5.13
2022-12-23T11:53:02.878Z,5.07
2022-12-23T11:55:37.137Z,5.35
2022-12-23T11:58:06.820Z,4.95
2022-12-23T12:00:40.091Z,4.90
2022-12-23T12:03:23.431Z,5.03
2022-12-23T12:06:01.053Z,5.32
2022-12-23T12:08:34.552Z,5.13
2022-12-23T12:11:07.730Z,4.22
2022-12-23T12:13:41.095Z,4.80
2022-12-23T12:16:23.824Z,4.85
2022-12-23T12:19:01.758Z,4.30
2022-12-23T12:21:38.711Z,4.80
2022-12-23T12:24:18.911Z,4.20
2022-12-23T12:26:52.460Z,4.45
2022-12-23T12:29:31.878Z,5.07
2022-12-23T12:32:01.286Z,4.72
2022-12-23T12:34:43.585Z,4.45
2022-12-23T12:37:28.684Z,4.28
2022-12-23T12:40:00.812Z,4.57
2022-12-23T12:42:34.003Z,4.93
2022-12-23T12:45:14.652Z,4.18
2022-12-23T12:47:55.972Z,4.57
2022-12-23T12:50:30.673Z,5.13
2022-12-23T12:53:13.590Z,4.63
2022-12-23T12:55:47.219Z,4.60
2022-12-23T12:58:23.456Z,4.25
2022-12-23T13:01:14.180Z,3.83
2022-12-23T13:04:16.287Z,4.13
2022-12-23T13:06:54.161Z,4.15
2022-12-23T13:09:38.354Z,4.68
2022-12-23T13:12:22.938Z,4.57
2022-12-23T13:15:02.862Z,4.20
2022-12-23T13:17:49.271Z,4.20
2022-12-23T13:20:33.045Z,4.15
2022-12-23T13:23:41.517Z,4.03
2022-12-23T13:26:06.248Z,4.07
2022-12-23T13:28:41.892Z,4.18
2022-12-23T13:31:31.752Z,4.18
2022-12-23T13:34:09.105Z,4.00
2022-12-23T13:36:53.912Z,4.47
2022-12-23T13:39:35.841Z,3.65
2022-12-23T13:42:08.693Z,4.00
2022-12-23T13:44:37.399Z,3.95
2022-12-23T13:47:13.924Z,3.97
2022-12-23T13:49:56.355Z,3.80
2022-12-23T13:52:33.794Z,3.80
2022-12-23T13:55:12.514Z,3.90
2022-12-23T13:57:59.037Z,3.88
2022-12-23T14:00:30.789Z,3.97
2022-12-23T14:03:20.655Z,3.83
2022-12-23T14:05:50.801Z,4.07
2022-12-23T14:08:26.115Z,3.88
2022-12-23T14:10:57.703Z,3.92
2022-12-23T14:13:34.412Z,4.35
2022-12-23T14:16:33.061Z,4.10
2022-12-23T14:19:34.446Z,4.03
2022-12-23T14:22:12.433Z,4.38
2022-12-23T14:25:11.246Z,3.72
2022-12-23T14:27:51.581Z,3.75
2022-12-23T14:30:33.483Z,3.85
2022-12-23T14:33:06.085Z,4.10
2022-12-23T14:35:55.688Z,4.25
2022-12-23T14:38:27.358Z,3.58
2022-12-23T14:41:22.662Z,4.30
2022-12-23T14:43:59.659Z,4.28
2022-12-23T14:47:01.785Z,4.40
2022-12-23T14:49:47.646Z,4.75
2022-12-23T14:52:50.426Z,4.30
2022-12-23T14:55:54.540Z,4.13
2022-12-23T14:59:01.756Z,4.18
2022-12-23T15:01:37.792Z,4.07
2022-12-23T15:04:19.316Z,4.75
2022-12-23T15:06:49.473Z,4.72
2022-12-23T15:09:24.930Z,5.03
2022-12-23T15:11:54.781Z,4.65
2022-12-23T15:14:32.745Z,4.88
2022-12-23T15:17:02.093Z,4.60
2022-12-23T15:19:34.563Z,4.50
2022-12-23T15:22:17.977Z,4.80
2022-12-23T15:24:50.694Z,5.00
2022-12-23T15:27:29.648Z,4.40
2022-12-23T15:29:59.248Z,4.88
2022-12-23T15:32:28.891Z,5.63
2022-12-23T15:35:03.244Z,4.95
2022-12-23T15:37:32.533Z,4.82
2022-12-23T15:40:09.919Z,6.00
2022-12-23T15:42:40.344Z,5.07
2022-12-23T15:45:30.687Z,5.60
2022-12-23T15:47:58.762Z,5.50
2022-12-23T15:50:29.533Z,5.50
2022-12-23T15:53:08.204Z,5.68
2022-12-23T15:55:40.183Z,5.30
2022-12-23T15:58:08.544Z,4.80
2022-12-23T16:00:40.815Z,5.30
2022-12-23T16:03:26.712Z,5.80
2022-12-23T16:05:56.328Z,5.30
2022-12-23T16:08:30.069Z,5.55
2022-12-23T16:11:06.633Z,6.13
2022-12-23T16:13:34.929Z,5.50
2022-12-23T16:16:19.532Z,5.65
2022-12-23T16:18:48.205Z,5.93
2022-12-23T16:21:17.821Z,6.13
2022-12-23T16:23:51.239Z,5.57
2022-12-23T16:26:19.599Z,5.30
2022-12-23T16:28:51.175Z,6.07
2022-12-23T16:31:24.924Z,5.63
2022-12-23T16:33:55.607Z,5.72
2022-12-23T16:36:36.709Z,6.00
2022-12-23T16:39:17.937Z,5.60
2022-12-23T16:41:45.877Z,5.97
2022-12-23T16:44:13.935Z,5.88
2022-12-23T16:46:45.035Z,6.10
2022-12-23T16:49:16.394Z,5.75
2022-12-23T16:51:46.469Z,5.93
2022-12-23T16:54:16.665Z,5.78
2022-12-23T16:56:46.695Z,5.75
2022-12-23T16:59:15.284Z,5.45
2022-12-23T17:01:46.372Z,5.30
2022-12-23T17:04:14.853Z,4.90
2022-12-23T17:06:43.390Z,5.65
2022-12-23T17:09:13.753Z,5.32
2022-12-23T17:11:44.633Z,5.07
2022-12-23T17:14:16.940Z,4.97
2022-12-23T17:16:45.359Z,4.63
2022-12-23T17:19:14.213Z,4.15
2022-12-23T17:21:45.451Z,5.00
2022-12-23T17:24:21.874Z,4.22
2022-12-23T17:26:54.428Z,4.15
2022-12-23T17:29:28.293Z,4.80
2022-12-23T17:31:56.523Z,5.00
2022-12-23T17:34:25.548Z,4.28
2022-12-23T17:36:55.588Z,4.22
2022-12-23T17:39:24.968Z,4.30
2022-12-23T17:41:52.945Z,4.20
2022-12-23T17:44:20.953Z,4.20
2022-12-23T17:46:49.407Z,4.28
2022-12-23T17:49:17.327Z,4.50
2022-12-23T17:51:45.160Z,4.07
2022-12-23T17:54:22.647Z,3.95
2022-12-23T17:56:53.725Z,3.80
2022-12-23T17:59:23.199Z,3.55
2022-12-23T18:01:51.627Z,3.63
2022-12-23T18:04:22.190Z,3.15
2022-12-23T18:06:52.406Z,4.00
2022-12-23T18:09:24.865Z,3.60
2022-12-23T18:11:57.086Z,3.80
2022-12-23T18:14:28.981Z,3.63
2022-12-23T18:16:58.146Z,4.13
2022-12-23T18:19:26.614Z,4.10
2022-12-23T18:21:56.834Z,4.18
2022-12-23T18:24:25.573Z,4.10
2022-12-23T18:27:13.827Z,4.07
2022-12-23T18:29:42.011Z,4.22
2022-12-23T18:32:20.321Z,3.60
2022-12-23T18:34:48.300Z,3.78
2022-12-23T18:37:16.768Z,3.67
2022-12-23T18:39:45.455Z,3.75
2022-12-23T18:42:16.286Z,4.00
2022-12-23T18:44:45.755Z,4.40
2022-12-23T18:47:14.150Z,4.13
2022-12-23T18:49:42.335Z,4.40
2022-12-23T18:52:13.543Z,4.28
2022-12-23T18:54:41.524Z,4.38
2022-12-23T18:57:11.851Z,4.47
2022-12-23T18:59:41.352Z,4.65
2022-12-23T19:02:15.168Z,4.40
2022-12-23T19:04:43.211Z,4.45
2022-12-23T19:07:12.007Z,4.88
2022-12-23T19:09:40.045Z,4.75
2022-12-23T19:12:08.275Z,4.50
2022-12-23T19:14:36.269Z,4.53
2022-12-23T19:17:05.741Z,4.68
2022-12-23T19:19:34.089Z,4.35
2022-12-23T19:22:02.077Z,4.50
2022-12-23T19:24:30.046Z,4.15
2022-12-23T19:26:58.108Z,4.28
2022-12-23T19:29:26.095Z,4.22
2022-12-23T19:31:54.003Z,4.68
2022-12-23T19:34:23.715Z,4.07
2022-12-23T19:36:51.875Z,4.28
2022-12-23T19:39:22.016Z,3.75
2022-12-23T19:41:50.169Z,4.55
2022-12-23T19:44:18.277Z,3.80
2022-12-23T19:46:46.290Z,4.05
2022-12-23T19:49:19.559Z,4.10
2022-12-23T19:51:49.703Z,3.88
2022-12-23T19:54:18.655Z,3.90
2022-12-23T19:56:47.163Z,4.30
2022-12-23T19:59:15.147Z,3.97
2022-12-23T20:01:43.482Z,3.88
2022-12-23T20:04:12.512Z,3.92
2022-12-23T20:06:42.002Z,4.22
2022-12-23T20:09:13.574Z,3.75
2022-12-23T20:11:43.617Z,3.60
2022-12-23T20:14:12.517Z,4.00
2022-12-23T20:16:41.106Z,3.95
2022-12-23T20:19:09.226Z,3.70
2022-12-23T20:21:37.389Z,3.85
2022-12-23T20:24:05.971Z,4.00
2022-12-23T20:26:35.246Z,3.97
2022-12-23T20:29:03.344Z,4.13
2022-12-23T20:31:33.478Z,4.40
2022-12-23T20:34:02.289Z,3.80
2022-12-23T20:36:32.605Z,4.00
2022-12-23T20:39:02.092Z,3.85
2022-12-23T20:41:31.381Z,4.10
2022-12-23T20:46:49.722Z,3.70
2022-12-23T20:49:17.734Z,3.75
2022-12-23T20:51:45.657Z,4.20
2022-12-23T20:54:14.078Z,3.60
2022-12-23T20:56:42.021Z,3.65
2022-12-23T20:59:17.696Z,3.90
2022-12-23T21:01:46.502Z,3.78
2022-12-23T21:04:16.391Z,3.65
2022-12-23T21:06:45.346Z,3.40
2022-12-23T21:09:15.302Z,3.63
2022-12-23T21:11:46.204Z,3.70
2022-12-23T21:14:16.590Z,3.85
2022-12-23T21:16:45.200Z,3.83
2022-12-23T21:19:16.645Z,3.50
2022-12-23T21:21:44.898Z,3.72
2022-12-23T21:24:13.732Z,4.20
2022-12-23T21:26:42.304Z,3.67
2022-12-23T21:29:11.697Z,3.47
2022-12-23T21:31:42.050Z,3.35
2022-12-23T21:34:14.159Z,3.38
2022-12-23T21:36:43.643Z,3.88
2022-12-23T21:39:15.181Z,4.00
2022-12-23T21:41:43.673Z,3.63
2022-12-23T21:44:14.786Z,3.95
2022-12-23T21:46:44.548Z,4.15
2022-12-23T21:49:12.762Z,4.20
2022-12-23T21:51:42.149Z,4.22
2022-12-23T21:54:11.084Z,4.10
2022-12-23T21:56:40.130Z,4.22
2022-12-23T21:59:11.361Z,3.92
2022-12-23T22:01:39.548Z,3.72
2022-12-23T22:04:09.227Z,3.83
2022-12-23T22:06:39.575Z,3.78
2022-12-23T22:09:08.984Z,3.25
2022-12-23T22:11:37.974Z,4.00
2022-12-23T22:14:08.705Z,3.80
2022-12-23T22:16:37.674Z,3.85
2022-12-23T22:19:08.605Z,3.85
2022-12-23T22:21:37.430Z,4.05
2022-12-23T22:24:05.917Z,3.47
2022-12-23T22:26:34.771Z,3.50
2022-12-23T22:29:05.029Z,3.63
2022-12-23T22:31:37.793Z,3.90
2022-12-23T22:34:07.053Z,4.03
2022-12-23T22:36:36.870Z,3.70
2022-12-23T22:39:07.541Z,4.13
2022-12-23T22:41:36.447Z,3.95
2022-12-23T22:44:04.435Z,3.55
2022-12-23T22:46:32.582Z,3.50
2022-12-23T22:49:00.885Z,3.88
2022-12-23T22:51:31.160Z,3.67
2022-12-23T22:54:02.707Z,4.28
2022-12-23T22:56:30.740Z,3.55
2022-12-23T22:58:58.691Z,3.60
2022-12-23T23:01:29.211Z,3.60
2022-12-23T23:03:59.475Z,3.60
2022-12-23T23:06:28.778Z,3.33
2022-12-23T23:08:57.068Z,3.85
2022-12-23T23:11:27.550Z,3.72
2022-12-23T23:13:55.929Z,3.60
2022-12-23T23:16:24.448Z,3.45
2022-12-23T23:18:53.484Z,3.70
2022-12-23T23:21:21.953Z,4.03
2022-12-23T23:23:50.532Z,3.80
2022-12-23T23:26:18.915Z,3.88
2022-12-23T23:28:49.126Z,3.38
2022-12-23T23:31:41.362Z,3.70
2022-12-23T23:34:05.691Z,3.85
2022-12-23T23:36:34.070Z,3.53
2022-12-23T23:39:02.148Z,3.97
2022-12-23T23:41:30.284Z,3.55
2022-12-23T23:43:59.884Z,3.30
2022-12-23T23:46:27.966Z,3.47
2022-12-23T23:48:56.266Z,3.60
2022-12-23T23:51:24.795Z,3.53
2022-12-23T23:53:52.947Z,3.35
2022-12-23T23:56:25.405Z,3.75
2022-12-23T23:58:54.495Z,3.40
